Time;durP1;ratioP1;P1;durP2;ratioP2;P2;SDS_P1;SDS_P2;PMS_P1;PMS_P2;Temp;Humidity;BMP_temperature;BMP_pressure;BME280_temperature;BME280_humidity;BME280_pressure;Samples;Min_cycle;Max_cycle;Signal;HPM_P1;HPM_P2
2022/08/20 00:00:18;;;;;;;26.95;24.05;;;21.30;79.30;;;;;;4992376;28;20110;-75
2022/08/20 00:02:51;;;;;;;25.95;22.52;;;21.30;79.40;;;;;;4991952;28;20084;-75
2022/08/20 00:05:22;;;;;;;27.20;23.00;;;21.30;79.50;;;;;;4992214;28;20124;-74
2022/08/20 00:07:48;;;;;;;29.27;24.80;;;21.30;79.50;;;;;;4991643;28;20026;-75
2022/08/20 00:10:14;;;;;;;28.58;24.85;;;21.20;79.60;;;;;;4991976;28;20105;-74
2022/08/20 00:12:44;;;;;;;26.42;23.33;;;21.30;79.30;;;;;;4974318;28;20130;-75
2022/08/20 00:15:11;;;;;;;29.60;23.80;;;21.30;79.40;;;;;;4974720;28;20023;-74
2022/08/20 00:17:38;;;;;;;26.95;23.55;;;21.20;79.70;;;;;;4991700;28;20481;-74
2022/08/20 00:20:07;;;;;;;30.70;26.00;;;21.20;79.60;;;;;;4974635;28;20030;-74
2022/08/20 00:22:33;;;;;;;32.30;25.38;;;21.20;79.90;;;;;;4974214;28;20027;-75
2022/08/20 00:24:58;;;;;;;29.67;25.20;;;21.20;80.00;;;;;;4992107;28;20492;-72
2022/08/20 00:27:24;;;;;;;34.00;25.90;;;21.20;79.90;;;;;;4991384;28;20046;-75
2022/08/20 00:29:50;;;;;;;30.63;25.10;;;21.10;80.30;;;;;;4992004;28;20507;-74
2022/08/20 00:32:15;;;;;;;39.60;29.73;;;21.00;80.30;;;;;;4991326;28;20504;-74
2022/08/20 00:34:41;;;;;;;400.77;276.52;;;21.00;80.40;;;;;;4974539;28;20469;-73
2022/08/20 00:37:07;;;;;;;100.22;60.38;;;21.00;80.40;;;;;;4991631;28;20018;-74
2022/08/20 00:39:33;;;;;;;217.23;122.70;;;21.00;80.40;;;;;;4991861;28;20023;-73
2022/08/20 00:41:59;;;;;;;160.98;91.43;;;21.00;80.50;;;;;;4991865;28;20054;-74
2022/08/20 00:44:25;;;;;;;83.95;48.83;;;21.10;80.40;;;;;;4991755;28;20027;-74
2022/08/20 00:46:51;;;;;;;80.13;46.83;;;21.10;80.00;;;;;;4974295;28;20064;-74
2022/08/20 00:49:24;;;;;;;59.60;37.35;;;21.10;80.10;;;;;;4974106;28;20084;-74
2022/08/20 00:51:58;;;;;;;34.75;27.13;;;21.10;80.70;;;;;;4991692;28;20022;-76
2022/08/20 00:54:32;;;;;;;40.15;28.67;;;21.00;81.00;;;;;;4991220;28;20488;-75
2022/08/20 00:57:06;;;;;;;35.55;28.63;;;21.00;81.40;;;;;;4991664;28;20026;-74
2022/08/20 00:59:36;;;;;;;37.63;30.33;;;20.90;81.60;;;;;;4991526;28;20037;-74
2022/08/20 01:02:04;;;;;;;39.92;30.30;;;20.90;82.20;;;;;;4991572;28;20496;-74
2022/08/20 01:04:32;;;;;;;32.83;26.52;;;20.90;81.60;;;;;;4974115;28;20022;-74
2022/08/20 01:06:58;;;;;;;35.65;29.75;;;20.90;82.20;;;;;;4991376;28;20113;-73
2022/08/20 01:09:25;;;;;;;39.95;30.23;;;20.80;82.30;;;;;;4991756;28;20049;-75
2022/08/20 01:11:52;;;;;;;40.25;31.77;;;20.80;82.50;;;;;;4991995;28;20169;-74
2022/08/20 01:14:37;;;;;;;41.28;31.90;;;20.80;82.40;;;;;;4973967;28;20065;-74
2022/08/20 01:17:07;;;;;;;38.72;30.90;;;20.70;82.60;;;;;;4991684;28;20030;-74
2022/08/20 01:19:44;;;;;;;35.90;30.17;;;20.70;82.80;;;;;;4978742;28;20033;-75
2022/08/20 01:25:07;;;;;;;38.08;31.95;;;20.60;83.20;;;;;;4992325;28;20311;-73
2022/08/20 01:27:33;;;;;;;42.60;33.97;;;20.50;83.90;;;;;;4991893;28;20166;-74
2022/08/20 01:30:01;;;;;;;42.65;32.88;;;20.50;84.10;;;;;;4976531;28;20031;-74
2022/08/20 01:32:27;;;;;;;40.72;33.25;;;20.50;85.20;;;;;;4975559;28;20023;-75
2022/08/20 01:34:53;;;;;;;41.58;33.10;;;20.50;85.10;;;;;;4994416;28;20022;-74
2022/08/20 01:37:18;;;;;;;49.55;35.78;;;20.50;85.50;;;;;;4997264;28;20026;-76
2022/08/20 01:39:44;;;;;;;40.83;33.67;;;20.40;85.20;;;;;;5009889;28;20045;-74
2022/08/20 01:42:31;;;;;;;45.95;33.28;;;20.30;85.60;;;;;;5012009;28;20019;-74
2022/08/20 01:44:57;;;;;;;46.67;34.55;;;20.20;86.00;;;;;;5011293;28;20050;-74
2022/08/20 01:47:26;;;;;;;43.60;34.85;;;20.20;86.40;;;;;;5007105;28;20022;-74
2022/08/20 01:49:58;;;;;;;50.15;38.08;;;20.20;86.60;;;;;;5003583;28;20034;-74
2022/08/20 01:52:47;;;;;;;50.22;37.67;;;20.00;86.60;;;;;;4995971;28;20509;-74
2022/08/20 01:55:13;;;;;;;43.97;33.05;;;20.00;87.00;;;;;;4994958;28;20058;-75
2022/08/20 01:57:39;;;;;;;50.88;38.40;;;20.00;87.30;;;;;;4994511;28;20030;-74
2022/08/20 02:00:09;;;;;;;51.00;38.72;;;20.00;87.00;;;;;;4994963;28;20030;-73
2022/08/20 02:02:34;;;;;;;49.97;37.25;;;19.90;87.40;;;;;;4994645;28;20054;-74
2022/08/20 02:05:06;;;;;;;51.13;39.42;;;20.00;87.40;;;;;;4994716;28;20480;-74
2022/08/20 02:07:32;;;;;;;50.20;38.88;;;19.90;87.60;;;;;;4994077;28;20034;-74
2022/08/20 02:09:59;;;;;;;54.58;39.92;;;19.90;87.70;;;;;;4994481;28;20038;-74
2022/08/20 02:12:24;;;;;;;52.90;39.00;;;19.90;87.90;;;;;;4994164;28;20022;-73
2022/08/20 02:14:53;;;;;;;53.47;40.40;;;19.90;87.70;;;;;;4994450;28;20101;-75
2022/08/20 02:17:21;;;;;;;57.05;42.15;;;19.90;87.80;;;;;;4994136;28;20018;-73
2022/08/20 02:19:52;;;;;;;55.83;40.25;;;19.90;88.80;;;;;;4976875;28;20026;-75
2022/08/20 02:22:20;;;;;;;63.35;42.55;;;19.90;89.00;;;;;;4994114;28;20027;-74
2022/08/20 02:24:46;;;;;;;58.90;40.28;;;19.90;88.90;;;;;;4994562;28;20018;-75
2022/08/20 02:27:12;;;;;;;57.47;40.97;;;19.80;88.80;;;;;;4976339;28;20068;-74
2022/08/20 02:29:38;;;;;;;57.90;42.03;;;19.80;88.30;;;;;;4994098;28;20049;-75
2022/08/20 02:32:05;;;;;;;51.42;38.03;;;19.80;88.60;;;;;;4993741;28;20058;-74
2022/08/20 02:34:33;;;;;;;58.47;40.88;;;19.70;88.70;;;;;;4980912;28;20392;-75
2022/08/20 02:36:59;;;;;;;52.70;39.33;;;19.70;88.80;;;;;;4993712;28;20137;-74
2022/08/20 02:39:25;;;;;;;55.40;41.35;;;19.70;88.80;;;;;;4976168;28;20520;-75
2022/08/20 02:41:51;;;;;;;61.22;43.47;;;19.80;88.90;;;;;;4993590;28;20034;-75
2022/08/20 02:44:19;;;;;;;61.90;41.13;;;19.80;89.10;;;;;;4976281;28;20038;-75
2022/08/20 02:46:45;;;;;;;62.22;43.83;;;19.80;89.40;;;;;;4993864;28;20065;-73
2022/08/20 02:49:11;;;;;;;71.22;44.90;;;19.80;89.50;;;;;;4993333;28;20026;-75
2022/08/20 02:51:36;;;;;;;69.88;45.75;;;19.70;89.70;;;;;;4976078;28;20038;-75
2022/08/20 02:54:02;;;;;;;64.97;43.10;;;19.80;90.00;;;;;;4993014;28;20022;-74
2022/08/20 02:56:27;;;;;;;64.30;45.63;;;19.70;89.80;;;;;;4993693;28;20018;-75
2022/08/20 02:58:53;;;;;;;75.93;48.13;;;19.70;90.20;;;;;;4992724;28;20484;-75
2022/08/20 03:01:19;;;;;;;68.40;45.42;;;19.70;90.40;;;;;;4993431;28;20023;-74
2022/08/20 03:03:45;;;;;;;70.43;46.38;;;19.70;90.80;;;;;;4993453;28;20085;-74
2022/08/20 03:06:11;;;;;;;61.03;41.65;;;19.70;90.70;;;;;;4980275;28;20105;-74
2022/08/20 03:08:38;;;;;;;77.68;49.83;;;19.70;90.70;;;;;;4975560;28;20497;-74
2022/08/20 03:11:04;;;;;;;72.25;47.50;;;19.70;90.80;;;;;;4975472;28;20579;-74
2022/08/20 03:13:30;;;;;;;78.03;48.22;;;19.60;90.30;;;;;;4975797;28;20073;-74
2022/08/20 03:15:59;;;;;;;79.47;49.80;;;19.60;90.90;;;;;;4992964;28;20431;-74
2022/08/20 03:18:32;;;;;;;74.20;47.90;;;19.50;91.10;;;;;;4992988;28;20106;-75
2022/08/20 03:20:58;;;;;;;89.75;52.55;;;19.50;91.10;;;;;;4993017;28;20377;-74
2022/08/20 03:23:24;;;;;;;93.38;54.53;;;19.50;91.90;;;;;;4993059;28;20034;-74
2022/08/20 03:25:49;;;;;;;65.47;44.08;;;19.40;91.70;;;;;;4992705;28;20510;-75
2022/08/20 03:28:16;;;;;;;74.57;47.25;;;19.40;91.60;;;;;;4993015;28;20117;-74
2022/08/20 03:30:42;;;;;;;78.10;48.88;;;19.40;91.80;;;;;;4988799;28;20030;-73
2022/08/20 03:33:09;;;;;;;73.50;44.25;;;19.40;91.80;;;;;;5007446;23;20076;-73
2022/08/20 03:35:36;;;;;;;60.78;40.25;;;19.30;92.10;;;;;;4992540;28;20108;-73
2022/08/20 03:38:06;;;;;;;57.67;39.03;;;19.30;92.10;;;;;;4992806;28;20373;-74
2022/08/20 03:40:33;;;;;;;56.53;38.53;;;19.40;92.20;;;;;;4991593;28;20496;-74
2022/08/20 03:43:00;;;;;;;57.35;38.45;;;19.30;92.00;;;;;;4992668;28;20392;-74
2022/08/20 03:45:26;;;;;;;59.45;38.47;;;19.30;92.10;;;;;;4992660;28;20095;-74
2022/08/20 03:47:53;;;;;;;44.60;30.77;;;19.30;92.20;;;;;;4992240;28;20396;-74
2022/08/20 03:50:23;;;;;;;50.70;33.47;;;19.30;92.20;;;;;;4992422;28;20477;-74
2022/08/20 03:52:50;;;;;;;52.47;32.30;;;19.30;92.40;;;;;;4990523;28;20037;-73
2022/08/20 03:55:16;;;;;;;40.72;28.80;;;19.30;92.70;;;;;;4992577;28;20089;-74
2022/08/20 03:57:50;;;;;;;45.40;29.48;;;19.30;92.80;;;;;;4992093;28;20030;-74
2022/08/20 04:00:46;;;;;;;47.35;29.05;;;19.30;92.80;;;;;;4992623;28;20488;-74
2022/08/20 04:03:12;;;;;;;46.78;29.85;;;19.40;92.90;;;;;;4991625;28;20033;-74
2022/08/20 04:05:39;;;;;;;41.63;26.92;;;19.30;92.90;;;;;;4992186;28;20471;-74
2022/08/20 04:08:08;;;;;;;98.78;61.00;;;19.30;93.00;;;;;;4992380;28;20454;-74
2022/08/20 04:10:34;;;;;;;89.47;49.35;;;19.30;93.10;;;;;;4993060;28;20027;-73
2022/08/20 04:13:00;;;;;;;115.18;56.95;;;19.30;93.00;;;;;;4992831;28;20030;-74
2022/08/20 04:15:26;;;;;;;91.47;46.08;;;19.30;93.30;;;;;;4992153;28;20026;-73
2022/08/20 04:17:52;;;;;;;67.53;34.15;;;19.40;93.40;;;;;;4991932;28;20544;-73
2022/08/20 04:20:24;;;;;;;67.03;33.67;;;19.30;93.50;;;;;;4992244;28;20113;-74
2022/08/20 04:22:51;;;;;;;82.20;35.22;;;19.40;93.70;;;;;;4991221;28;20026;-74
2022/08/20 04:25:17;;;;;;;59.47;30.33;;;19.30;93.80;;;;;;4992559;28;20115;-74
2022/08/20 04:27:45;;;;;;;57.15;29.15;;;19.30;93.80;;;;;;4992474;28;20019;-74
2022/08/20 04:30:13;;;;;;;50.08;26.23;;;19.30;94.00;;;;;;4992574;28;20485;-74
2022/08/20 04:32:40;;;;;;;42.22;23.00;;;19.30;94.20;;;;;;4990662;28;20030;-74
2022/08/20 04:35:08;;;;;;;40.50;23.20;;;19.30;94.20;;;;;;4992001;28;20500;-74
2022/08/20 04:37:34;;;;;;;49.72;25.65;;;19.30;94.10;;;;;;4991567;28;20049;-74
2022/08/20 04:42:53;;;;;;;46.08;23.02;;;19.20;94.20;;;;;;4991889;28;20065;-75
2022/08/20 04:45:20;;;;;;;36.70;20.15;;;19.20;94.40;;;;;;4992240;28;20464;-75
2022/08/20 04:47:47;;;;;;;45.17;22.10;;;19.20;94.50;;;;;;4990292;28;20477;-75
2022/08/20 04:50:13;;;;;;;61.10;24.77;;;19.20;94.50;;;;;;4991902;28;20042;-75
2022/08/20 04:52:39;;;;;;;48.95;21.95;;;19.20;94.70;;;;;;4991258;28;20022;-75
2022/08/20 04:55:06;;;;;;;39.88;19.45;;;19.10;94.50;;;;;;4992041;28;20022;-75
2022/08/20 04:57:32;;;;;;;45.90;20.38;;;19.00;94.60;;;;;;4991469;28;20141;-76
2022/08/20 04:59:57;;;;;;;32.90;16.85;;;19.00;94.60;;;;;;4991886;28;20042;-75
2022/08/20 05:02:23;;;;;;;36.05;16.73;;;19.00;94.70;;;;;;4991535;28;20061;-76
2022/08/20 05:04:49;;;;;;;25.15;14.15;;;19.00;94.70;;;;;;4991886;28;20377;-76
2022/08/20 05:07:17;;;;;;;29.63;13.98;;;19.00;94.80;;;;;;4991332;28;20027;-76
2022/08/20 05:09:43;;;;;;;23.02;13.77;;;18.90;94.80;;;;;;4990565;28;20396;-76
2022/08/20 05:12:09;;;;;;;27.48;15.60;;;18.90;94.80;;;;;;4991481;28;20041;-76
2022/08/20 05:14:35;;;;;;;28.75;17.60;;;18.80;94.60;;;;;;4992354;28;20032;-76
2022/08/20 05:17:04;;;;;;;34.08;20.17;;;18.80;94.90;;;;;;4994217;28;20026;-75
2022/08/20 05:19:31;;;;;;;156.10;71.93;;;18.70;94.70;;;;;;4995288;28;20045;-75
2022/08/20 05:21:57;;;;;;;202.25;75.18;;;18.80;94.90;;;;;;4995548;28;20026;-75
2022/08/20 05:24:23;;;;;;;98.45;39.40;;;18.80;94.90;;;;;;4995127;28;20030;-75
2022/08/20 05:26:49;;;;;;;87.00;34.97;;;18.80;94.90;;;;;;4995340;28;20031;-75
2022/08/20 05:29:15;;;;;;;80.65;32.33;;;18.70;94.90;;;;;;4993435;28;20393;-75
2022/08/20 05:31:41;;;;;;;67.97;31.83;;;18.70;95.00;;;;;;4995103;28;20122;-75
2022/08/20 05:34:09;;;;;;;65.88;32.67;;;18.70;95.00;;;;;;4993631;28;20369;-74
2022/08/20 05:36:39;;;;;;;65.10;30.95;;;18.60;94.90;;;;;;4995268;28;20396;-75
2022/08/20 05:39:05;;;;;;;67.68;33.40;;;18.70;95.10;;;;;;4995174;28;20485;-76
2022/08/20 05:41:30;;;;;;;73.80;34.78;;;18.70;95.10;;;;;;4994876;28;20026;-75
2022/08/20 05:43:59;;;;;;;86.93;35.50;;;18.60;95.10;;;;;;4993412;28;20516;-76
2022/08/20 05:46:25;;;;;;;79.38;33.38;;;18.60;95.20;;;;;;4994972;28;20030;-75
2022/08/20 05:48:51;;;;;;;76.70;34.63;;;18.70;95.30;;;;;;4994341;28;20026;-75
2022/08/20 05:51:16;;;;;;;76.63;35.78;;;18.80;95.20;;;;;;4994391;28;20030;-75
2022/08/20 05:53:42;;;;;;;77.35;33.53;;;18.70;95.20;;;;;;4994664;28;20022;-75
2022/08/20 05:56:10;;;;;;;58.28;31.48;;;18.70;95.30;;;;;;4994508;28;20018;-75
2022/08/20 05:58:36;;;;;;;114.25;38.25;;;18.70;95.30;;;;;;4994692;28;20424;-75
2022/08/20 06:01:02;;;;;;;88.53;38.10;;;18.70;95.30;;;;;;4993331;28;20388;-75
2022/08/20 06:06:13;;;;;;;107.88;42.83;;;18.80;95.40;;;;;;4981967;28;20185;-75
2022/08/20 06:08:38;;;;;;;112.53;43.10;;;18.70;95.40;;;;;;4994672;28;20097;-75
2022/08/20 06:11:04;;;;;;;100.38;40.47;;;18.80;95.40;;;;;;4995693;28;20473;-75
2022/08/20 06:13:30;;;;;;;112.97;47.20;;;18.80;95.40;;;;;;4995594;28;20037;-75
2022/08/20 06:15:56;;;;;;;122.95;49.00;;;18.80;95.40;;;;;;4994000;28;20026;-75
2022/08/20 06:18:22;;;;;;;119.10;48.47;;;18.90;95.50;;;;;;4995002;28;20053;-73
2022/08/20 06:20:49;;;;;;;114.03;45.70;;;18.90;95.50;;;;;;4994808;28;20053;-74
2022/08/20 06:23:15;;;;;;;1999.90;620.80;;;18.90;95.50;;;;;;4993529;28;20117;-74
2022/08/20 06:25:41;;;;;;;434.35;134.48;;;18.90;95.40;;;;;;4994128;28;20069;-74
2022/08/20 06:28:07;;;;;;;638.08;255.05;;;19.00;95.50;;;;;;4992824;28;20113;-75
2022/08/20 06:30:33;;;;;;;803.67;283.00;;;19.00;95.50;;;;;;4994305;28;20113;-75
2022/08/20 06:32:59;;;;;;;358.05;143.95;;;19.10;95.50;;;;;;4992942;28;20109;-75
2022/08/20 06:35:25;;;;;;;255.77;94.93;;;19.10;95.50;;;;;;4994393;28;20098;-75
2022/08/20 06:37:51;;;;;;;126.93;50.38;;;19.00;95.40;;;;;;4993424;28;20033;-74
2022/08/20 06:40:24;;;;;;;90.30;46.08;;;18.90;95.30;;;;;;4994123;28;20026;-75
2022/08/20 06:42:51;;;;;;;88.72;45.38;;;18.90;95.30;;;;;;4993470;28;20387;-75
2022/08/20 06:45:28;;;;;;;142.85;55.90;;;18.70;95.20;;;;;;4993688;28;20468;-75
2022/08/20 06:47:57;;;;;;;191.48;61.45;;;18.80;95.40;;;;;;4980615;28;20035;-74
2022/08/20 06:50:27;;;;;;;143.02;56.95;;;18.80;95.50;;;;;;4993783;28;20026;-75
2022/08/20 06:52:53;;;;;;;174.43;63.90;;;18.80;95.40;;;;;;4993338;28;20374;-75
2022/08/20 06:55:20;;;;;;;124.75;56.65;;;18.80;95.40;;;;;;4993797;28;20085;-75
2022/08/20 06:57:47;;;;;;;154.00;59.40;;;18.80;95.40;;;;;;4993481;28;20400;-75
2022/08/20 07:00:17;;;;;;;288.00;98.70;;;18.70;95.30;;;;;;4992690;28;20026;-75
2022/08/20 07:02:42;;;;;;;221.40;72.03;;;18.70;95.30;;;;;;4993380;28;20442;-75
2022/08/20 07:05:09;;;;;;;387.85;139.55;;;18.70;95.30;;;;;;4993614;28;20146;-74
2022/08/20 07:07:36;;;;;;;181.65;74.25;;;18.60;95.30;;;;;;4991596;28;20072;-75
2022/08/20 07:10:05;;;;;;;165.30;64.85;;;18.60;95.30;;;;;;4993553;28;20042;-75
2022/08/20 07:12:31;;;;;;;186.25;70.50;;;18.60;95.30;;;;;;4991520;28;20448;-75
2022/08/20 07:14:56;;;;;;;213.60;71.10;;;18.70;95.40;;;;;;4993225;28;20022;-75
2022/08/20 07:17:22;;;;;;;155.23;63.90;;;18.70;95.30;;;;;;4991320;28;20027;-75
2022/08/20 07:19:47;;;;;;;163.75;63.78;;;18.50;95.20;;;;;;4993346;28;20069;-75
2022/08/20 07:22:13;;;;;;;162.60;63.05;;;18.50;95.20;;;;;;4992684;28;20472;-75
2022/08/20 07:24:39;;;;;;;176.70;66.95;;;18.50;95.20;;;;;;4992861;28;20027;-75
2022/08/20 07:27:05;;;;;;;153.38;62.17;;;18.50;95.30;;;;;;4992736;28;20073;-75
2022/08/20 07:32:33;;;;;;;153.10;59.85;;;18.60;95.30;;;;;;4983427;28;20034;-75
2022/08/20 07:32:35;;;;;;;129.93;57.85;;;18.60;95.30;;;;;;4992422;28;20539;-75
2022/08/20 07:35:09;;;;;;;174.32;66.63;;;18.60;95.30;;;;;;4991547;28;20404;-75
2022/08/20 07:37:40;;;;;;;150.15;56.63;;;18.60;95.30;;;;;;4991616;28;20038;-76
2022/08/20 07:40:10;;;;;;;146.25;59.13;;;18.60;95.40;;;;;;4992860;28;20034;-75
2022/08/20 07:42:38;;;;;;;192.75;66.78;;;18.60;95.40;;;;;;4992344;28;20560;-74
2022/08/20 07:45:09;;;;;;;136.52;57.45;;;18.70;95.40;;;;;;4992854;28;20062;-74
2022/08/20 07:47:39;;;;;;;119.78;54.80;;;18.80;95.40;;;;;;4992471;28;20112;-75
2022/08/20 07:50:06;;;;;;;172.38;60.88;;;18.80;95.40;;;;;;4991266;28;20030;-75
2022/08/20 07:52:34;;;;;;;148.18;60.40;;;18.70;95.30;;;;;;4992319;28;20377;-74
2022/08/20 07:55:04;;;;;;;194.68;66.93;;;18.70;95.40;;;;;;4992077;28;20077;-75
2022/08/20 07:57:30;;;;;;;212.57;73.60;;;18.70;95.40;;;;;;4992173;28;20053;-75
2022/08/20 07:59:57;;;;;;;179.52;69.30;;;18.70;95.30;;;;;;4991241;28;20371;-75
2022/08/20 08:02:24;;;;;;;170.75;70.25;;;18.80;95.40;;;;;;4990883;28;20480;-76
2022/08/20 08:04:49;;;;;;;194.32;77.10;;;18.90;95.50;;;;;;4992623;28;20515;-75
2022/08/20 08:07:15;;;;;;;150.75;66.03;;;19.00;95.50;;;;;;4992336;28;20026;-75
2022/08/20 08:09:43;;;;;;;207.68;81.13;;;19.10;95.40;;;;;;4990955;28;20094;-76
2022/08/20 08:12:11;;;;;;;224.90;83.60;;;19.10;95.40;;;;;;4992139;28;20057;-75
2022/08/20 08:14:38;;;;;;;185.55;80.63;;;19.30;95.50;;;;;;4992438;28;20018;-75
2022/08/20 08:17:05;;;;;;;159.00;74.90;;;19.30;95.40;;;;;;4991996;28;20033;-75
2022/08/20 08:19:37;;;;;;;153.82;71.60;;;19.40;95.30;;;;;;4992131;28;20022;-76
2022/08/20 08:22:11;;;;;;;152.15;72.60;;;19.30;95.20;;;;;;4992528;28;20084;-76
2022/08/20 08:24:42;;;;;;;136.23;69.03;;;19.30;95.20;;;;;;4979863;28;20030;-75
2022/08/20 08:27:08;;;;;;;141.73;70.55;;;19.20;94.90;;;;;;4990737;28;20030;-75
2022/08/20 08:29:35;;;;;;;163.50;75.20;;;19.10;95.00;;;;;;4992327;28;20030;-75
2022/08/20 08:32:04;;;;;;;106.60;64.20;;;19.20;95.10;;;;;;4991980;28;20064;-76
2022/08/20 08:34:31;;;;;;;136.25;69.47;;;19.30;95.00;;;;;;4991988;28;20440;-76
2022/08/20 08:36:57;;;;;;;138.13;72.60;;;19.30;95.00;;;;;;4990866;28;20064;-75
2022/08/20 08:39:23;;;;;;;170.07;75.82;;;19.40;95.00;;;;;;4991753;28;20062;-75
2022/08/20 08:41:51;;;;;;;120.43;67.07;;;19.40;95.00;;;;;;4992428;28;20038;-76
2022/08/20 08:44:22;;;;;;;131.38;69.95;;;19.50;95.00;;;;;;4991448;28;20508;-75
2022/08/20 08:46:57;;;;;;;112.25;63.67;;;19.50;94.80;;;;;;4992195;28;20031;-75
2022/08/20 08:49:26;;;;;;;98.78;60.17;;;19.50;94.80;;;;;;4993716;28;20105;-75
2022/08/20 08:51:57;;;;;;;93.32;58.45;;;19.50;94.60;;;;;;4996457;28;20035;-76
2022/08/20 08:54:27;;;;;;;83.90;55.20;;;19.50;94.50;;;;;;4994472;28;20018;-75
2022/08/20 08:56:53;;;;;;;78.47;54.28;;;19.70;94.60;;;;;;4996449;28;20030;-75
2022/08/20 08:59:21;;;;;;;84.20;56.55;;;19.80;94.40;;;;;;4995747;28;20022;-75
2022/08/20 09:01:51;;;;;;;72.25;50.35;;;19.90;94.20;;;;;;4995612;28;20027;-75
2022/08/20 09:04:20;;;;;;;86.20;54.67;;;19.90;93.60;;;;;;4994588;28;20027;-75
2022/08/20 09:06:47;;;;;;;70.25;49.67;;;19.90;93.70;;;;;;4996132;28;20030;-74
2022/08/20 09:09:36;;;;;;;67.38;51.33;;;19.90;93.40;;;;;;4994204;28;20022;-75
2022/08/20 09:12:11;;;;;;;74.00;49.30;;;19.80;93.40;;;;;;4996666;28;20229;-76
2022/08/20 09:14:38;;;;;;;78.22;53.10;;;19.90;93.80;;;;;;4996252;28;20026;-76
2022/08/20 09:17:04;;;;;;;68.40;49.17;;;19.90;93.70;;;;;;4994347;28;20018;-75
2022/08/20 09:19:30;;;;;;;72.93;50.67;;;19.70;93.40;;;;;;4996162;28;20018;-75
2022/08/20 09:21:56;;;;;;;63.63;47.28;;;19.70;93.40;;;;;;4994329;28;20030;-75
2022/08/20 09:24:22;;;;;;;59.65;45.28;;;19.70;93.40;;;;;;4995924;28;20023;-75
2022/08/20 09:26:47;;;;;;;63.75;46.95;;;19.70;93.00;;;;;;4997980;28;20030;-76
2022/08/20 09:29:13;;;;;;;61.42;45.30;;;19.70;93.00;;;;;;4998445;28;20018;-76
2022/08/20 09:31:42;;;;;;;68.50;49.17;;;19.70;93.20;;;;;;5010092;23;20104;-73
2022/08/20 09:34:10;;;;;;;63.55;45.25;;;19.80;93.20;;;;;;4973675;28;20038;-73
2022/08/20 09:36:36;;;;;;;68.82;48.40;;;19.70;93.10;;;;;;4975792;28;20019;-74
2022/08/20 09:39:01;;;;;;;57.45;44.33;;;19.80;93.30;;;;;;4975340;28;20370;-74
2022/08/20 09:41:30;;;;;;;65.32;46.97;;;19.70;93.20;;;;;;4975568;28;20023;-74
2022/08/20 09:43:55;;;;;;;64.80;47.22;;;19.70;93.20;;;;;;4975640;28;20027;-74
2022/08/20 09:46:21;;;;;;;69.53;49.03;;;19.70;93.10;;;;;;4975688;28;20118;-73
2022/08/20 09:48:47;;;;;;;70.63;48.47;;;19.70;93.10;;;;;;4975271;28;20426;-73
2022/08/20 09:51:12;;;;;;;83.65;53.33;;;19.60;93.00;;;;;;4974100;28;20039;-74
2022/08/20 09:53:38;;;;;;;96.10;56.75;;;19.70;93.50;;;;;;4975143;28;20059;-74
2022/08/20 09:56:04;;;;;;;60.20;46.10;;;19.90;93.80;;;;;;4955643;28;20111;-74
2022/08/20 09:58:37;;;;;;;74.18;52.33;;;19.80;93.30;;;;;;4966277;28;20085;-74
2022/08/20 10:01:14;;;;;;;74.15;51.28;;;20.00;93.70;;;;;;4974815;28;20050;-74
2022/08/20 10:03:46;;;;;;;121.88;74.88;;;20.00;93.50;;;;;;4971862;28;20031;-74
2022/08/20 10:06:13;;;;;;;330.33;206.80;;;20.10;93.40;;;;;;4962298;28;20023;-74
2022/08/20 10:08:39;;;;;;;117.18;74.45;;;20.10;93.50;;;;;;4974965;28;20077;-75
2022/08/20 10:11:05;;;;;;;103.93;65.57;;;20.00;93.00;;;;;;4974902;28;20019;-73
2022/08/20 10:13:31;;;;;;;174.90;102.60;;;20.00;93.10;;;;;;4973922;28;20062;-73
2022/08/20 10:15:56;;;;;;;116.93;67.63;;;20.00;93.10;;;;;;4970443;28;20055;-74
2022/08/20 10:18:22;;;;;;;120.95;75.43;;;20.00;93.20;;;;;;4965857;28;20023;-73
2022/08/20 10:20:48;;;;;;;117.55;66.05;;;20.00;93.40;;;;;;4974712;28;20030;-73
2022/08/20 10:23:13;;;;;;;368.27;212.30;;;19.90;93.10;;;;;;4975555;28;20093;-73
2022/08/20 10:25:40;;;;;;;83.18;56.75;;;20.00;93.70;;;;;;4974788;28;20027;-74
2022/08/20 10:28:05;;;;;;;114.38;65.47;;;20.00;93.10;;;;;;4970171;28;20028;-74
2022/08/20 10:30:32;;;;;;;81.45;56.45;;;20.00;93.30;;;;;;4973456;28;20034;-74
2022/08/20 10:32:57;;;;;;;74.93;52.63;;;20.00;93.40;;;;;;4974741;28;20031;-73
2022/08/20 10:35:23;;;;;;;77.28;51.85;;;20.00;93.30;;;;;;4973595;28;20495;-74
2022/08/20 10:37:48;;;;;;;78.00;52.80;;;20.00;93.00;;;;;;4974608;28;20023;-74
2022/08/20 10:40:14;;;;;;;73.05;50.55;;;20.00;93.40;;;;;;4978428;28;20031;-74
2022/08/20 10:42:42;;;;;;;76.85;53.10;;;20.00;93.50;;;;;;4978264;28;20023;-74
2022/08/20 10:45:12;;;;;;;67.47;50.03;;;20.00;93.40;;;;;;4965307;28;20035;-74
2022/08/20 10:47:39;;;;;;;68.37;48.67;;;20.00;93.20;;;;;;4976530;28;20027;-74
2022/08/20 10:50:08;;;;;;;73.65;50.45;;;20.00;93.20;;;;;;4975711;28;20618;-74
2022/08/20 10:52:34;;;;;;;71.75;50.78;;;20.00;93.20;;;;;;4975764;28;20094;-74
2022/08/20 10:54:59;;;;;;;75.80;52.83;;;19.90;93.30;;;;;;4974349;28;20066;-75
2022/08/20 10:57:28;;;;;;;86.97;56.78;;;19.90;93.50;;;;;;4973707;28;21790;-74
2022/08/20 10:59:56;;;;;;;93.15;59.78;;;19.80;93.60;;;;;;4964537;28;20050;-74
2022/08/20 11:02:22;;;;;;;79.65;55.67;;;19.80;93.70;;;;;;4970281;28;20027;-74
2022/08/20 11:04:48;;;;;;;93.03;60.88;;;19.80;93.60;;;;;;4974253;28;20061;-76
2022/08/20 11:07:19;;;;;;;78.95;56.10;;;19.90;93.90;;;;;;4972487;28;20027;-75
2022/08/20 11:09:47;;;;;;;88.63;56.90;;;19.80;93.50;;;;;;4974555;28;20109;-75
2022/08/20 11:12:13;;;;;;;91.65;60.38;;;19.80;93.70;;;;;;4959084;28;20035;-75
2022/08/20 11:14:38;;;;;;;213.07;121.28;;;19.70;93.50;;;;;;4974114;28;20342;-75
2022/08/20 11:17:05;;;;;;;80.28;54.55;;;19.70;93.50;;;;;;4973858;28;20018;-75
2022/08/20 11:19:30;;;;;;;187.70;111.78;;;19.70;93.70;;;;;;4973874;28;20027;-75
2022/08/20 11:21:56;;;;;;;131.40;77.13;;;19.70;93.70;;;;;;4973843;28;20395;-75
2022/08/20 11:24:22;;;;;;;110.13;64.13;;;19.70;93.90;;;;;;4973605;28;20042;-75
2022/08/20 11:26:49;;;;;;;97.07;62.47;;;19.70;93.90;;;;;;4969491;28;20028;-74
2022/08/20 11:29:16;;;;;;;98.03;63.65;;;19.70;93.80;;;;;;4971507;28;20030;-74
2022/08/20 11:31:41;;;;;;;81.28;56.03;;;19.80;94.10;;;;;;4973569;28;20027;-72
2022/08/20 11:34:07;;;;;;;89.13;57.33;;;19.80;94.00;;;;;;4974161;28;20153;-76
2022/08/20 11:36:33;;;;;;;97.95;60.63;;;19.90;94.00;;;;;;4974125;28;20034;-73
2022/08/20 11:38:59;;;;;;;105.10;64.05;;;19.90;94.20;;;;;;4971093;28;20031;-73
2022/08/20 11:41:25;;;;;;;95.15;61.03;;;19.90;94.20;;;;;;4972986;28;20041;-75
2022/08/20 11:43:50;;;;;;;80.80;54.95;;;20.00;94.10;;;;;;4974164;28;20034;-74
2022/08/20 11:46:16;;;;;;;92.25;59.60;;;19.90;94.10;;;;;;4974680;28;20019;-74
2022/08/20 11:48:41;;;;;;;98.00;61.03;;;20.00;94.10;;;;;;4974590;28;20034;-73
2022/08/20 11:51:07;;;;;;;95.90;62.80;;;19.90;94.10;;;;;;4980167;28;20033;-74
2022/08/20 11:53:32;;;;;;;102.82;63.20;;;19.90;94.00;;;;;;4976396;28;20026;-74
2022/08/20 11:55:59;;;;;;;96.78;62.80;;;19.90;94.10;;;;;;4976051;28;20026;-75
2022/08/20 11:58:24;;;;;;;98.00;60.90;;;20.00;94.30;;;;;;4973380;28;20073;-74
2022/08/20 12:00:50;;;;;;;104.28;61.97;;;19.90;94.30;;;;;;4972791;28;20026;-74
2022/08/20 12:03:16;;;;;;;88.63;56.35;;;20.00;94.40;;;;;;4971880;28;20086;-76
2022/08/20 12:05:44;;;;;;;82.60;57.60;;;19.90;94.40;;;;;;4972830;28;20038;-73
2022/08/20 12:08:10;;;;;;;84.20;56.53;;;19.80;94.00;;;;;;4972860;28;20030;-74
2022/08/20 12:10:38;;;;;;;91.00;57.47;;;19.80;94.40;;;;;;4972720;28;20482;-74
2022/08/20 12:13:05;;;;;;;89.05;56.65;;;19.80;94.50;;;;;;4972991;28;20032;-74
2022/08/20 12:15:34;;;;;;;97.03;60.20;;;19.80;94.40;;;;;;4972440;28;20350;-75
2022/08/20 12:18:00;;;;;;;140.50;68.18;;;19.80;94.50;;;;;;4972612;28;20023;-74
2022/08/20 12:20:26;;;;;;;97.28;60.80;;;19.80;94.60;;;;;;4972870;28;20173;-74
2022/08/20 12:22:52;;;;;;;93.97;59.17;;;19.80;94.70;;;;;;4972672;28;20027;-74
2022/08/20 12:25:19;;;;;;;101.00;61.25;;;;;;;;;;4968337;28;20050;-75
2022/08/20 12:27:45;;;;;;;108.60;63.00;;;19.70;94.70;;;;;;4970374;28;20038;-74
2022/08/20 12:30:22;;;;;;;130.05;69.50;;;19.70;94.70;;;;;;4960179;28;20023;-74
2022/08/20 12:32:47;;;;;;;97.22;58.83;;;19.70;94.90;;;;;;4972400;28;20517;-74